Millington Regional Jetport Airport Millington US
ICAO: KNQA
IATA: NQA
Category: Medium
Scheduled Services: No

Elevation: 320 ft
TransAlt. 18000 ft.

Airport Communications:
MEMPHIS APP:119.1
AWOS 3:118.925
CTAF:120.25
MEMPHIS DEP:124.15
GND:121.375
TWR:120.25
UNICOM:122.95

KNQA Zoom In..

Runways:

(A) RW 04 length 8000 ft width 200 ft
---- / hdg 39

(B) RW 22 length 8000 ft width 200 ft
ILS 109.75 / hdg 219

Location; KNQA
Day. 01 / Time. 16.50 Zulu
* Altimeter: 30.24
* Temperature: 05° c. 41°f.
* Wind from: 230° Speed 06 kn.
Dewpoint: -06° c.
Visibility: 10 Statute Miles.
Clouds: Clear (automated report).

KNQA 011650Z 23006KT 10SM CLR 05/M06 A3024

Going to: --> -->


Wind From 230°
Speed 06 kn.

 
 
jpsmedia worldairports.se 2020   terms of use